Time;durP1;ratioP1;P1;durP2;ratioP2;P2;SDS_P1;SDS_P2;PMS_P1;PMS_P2;Temp;Humidity;BMP_temperature;BMP_pressure;BME280_temperature;BME280_humidity;BME280_pressure;Samples;Min_cycle;Max_cycle;Signal;HPM_P1;HPM_P2
2022/03/21 00:02:22;;;;;;;11.6;9;;;;;;;4.59;63.8252;949.5539;;;;
2022/03/21 00:04:48;;;;;;;11.8;9.2;;;;;;;4.68;63.52246;949.5254;;;;
2022/03/21 00:07:19;;;;;;;15.3;8.9;;;;;;;4.54;63.94141;949.4833;;;;
2022/03/21 00:09:50;;;;;;;11.8;9.3;;;;;;;4.44;64.44434;949.5375;;;;
2022/03/21 00:12:25;;;;;;;11.8;8.2;;;;;;;4.39;64.5498;949.5576;;;;
2022/03/21 00:14:51;;;;;;;12.1;8.7;;;;;;;4.38;64.6709;949.6177;;;;
2022/03/21 00:17:37;;;;;;;12;9.3;;;;;;;4.41;64.62012;949.5787;;;;
2022/03/21 00:20:15;;;;;;;13.2;9.5;;;;;;;4.46;64.42578;949.582;;;;
2022/03/21 00:22:53;;;;;;;18.6;11.2;;;;;;;4.34;65.09277;949.5234;;;;
2022/03/21 00:25:32;;;;;;;14.8;10.7;;;;;;;4.42;64.91406;949.6147;;;;
2022/03/21 00:28:10;;;;;;;14.5;11;;;;;;;4.34;65.14941;949.6096;;;;
2022/03/21 00:30:47;;;;;;;16.5;12;;;;;;;4.38;65.32324;949.6013;;;;
2022/03/21 00:35:06;;;;;;;17.7;12.4;;;;;;;4.33;65.14844;949.7352;;;;
2022/03/21 00:37:52;;;;;;;15.3;11.1;;;;;;;4.31;65.3252;949.6906;;;;
2022/03/21 00:40:31;;;;;;;14.3;10.6;;;;;;;4.21;65.94043;949.7449;;;;
2022/03/21 00:43:03;;;;;;;16.1;10.8;;;;;;;4.04;66.55469;949.7672;;;;
2022/03/21 00:45:34;;;;;;;14.6;10.9;;;;;;;4.01;66.53906;949.6764;;;;
2022/03/21 00:48:14;;;;;;;14.9;10.3;;;;;;;4.07;66.34375;949.7166;;;;
2022/03/21 00:50:41;;;;;;;16.7;11;;;;;;;4.17;65.9668;949.717;;;;
2022/03/21 00:53:20;;;;;;;15.9;10.1;;;;;;;4.06;66.26465;949.7446;;;;
2022/03/21 00:55:59;;;;;;;12.9;9.7;;;;;;;4;66.45898;949.7609;;;;
2022/03/21 00:58:25;;;;;;;13.5;9.5;;;;;;;3.74;67.29297;949.7782;;;;
2022/03/21 01:00:59;;;;;;;14.2;9.2;;;;;;;3.76;67.16309;949.6917;;;;
2022/03/21 01:03:36;;;;;;;13.2;9.8;;;;;;;3.71;67.49121;949.7592;;;;
2022/03/21 01:06:11;;;;;;;12.9;9.6;;;;;;;3.72;67.65137;949.7497;;;;
2022/03/21 01:08:39;;;;;;;13.2;9.7;;;;;;;3.65;68.30273;949.6973;;;;
2022/03/21 01:11:14;;;;;;;14;9.6;;;;;;;3.64;68.40137;949.6862;;;;
2022/03/21 01:13:42;;;;;;;13.1;9.8;;;;;;;3.75;68.04785;949.74;;;;
2022/03/21 01:16:25;;;;;;;12.4;9.9;;;;;;;3.71;67.95215;949.746;;;;
2022/03/21 01:19:03;;;;;;;13.2;10.4;;;;;;;3.82;67.63184;949.7104;;;;
2022/03/21 01:21:40;;;;;;;12.6;9.8;;;;;;;3.84;67.23145;949.7524;;;;
2022/03/21 01:24:15;;;;;;;12.9;9.2;;;;;;;3.67;67.69922;949.7416;;;;
2022/03/21 01:26:53;;;;;;;14.7;10.3;;;;;;;3.62;68.0293;949.7893;;;;
2022/03/21 01:29:23;;;;;;;14.6;10;;;;;;;3.48;68.44336;949.7791;;;;
2022/03/21 01:31:58;;;;;;;13.8;10.4;;;;;;;3.16;69.7959;949.775;;;;
2022/03/21 01:37:27;;;;;;;14.1;9.9;;;;;;;3.01;70.78027;949.7753;;;;
2022/03/21 01:39:52;;;;;;;13.9;9.9;;;;;;;3.18;70.11328;949.8117;;;;
2022/03/21 01:42:17;;;;;;;12.6;9.9;;;;;;;3.26;69.75586;949.7486;;;;
2022/03/21 01:44:43;;;;;;;13.9;9.7;;;;;;;3.31;69.21289;949.8039;;;;
2022/03/21 01:47:09;;;;;;;13;9.4;;;;;;;3.38;68.91113;949.7521;;;;
2022/03/21 01:49:34;;;;;;;11.4;9.1;;;;;;;3.34;69.20801;949.787;;;;
2022/03/21 01:51:59;;;;;;;12.6;9.4;;;;;;;3.25;69.52832;949.8109;;;;
2022/03/21 01:56:50;;;;;;;13.8;9.9;;;;;;;3.19;69.28516;949.8028;;;;
2022/03/21 01:59:16;;;;;;;14;9.8;;;;;;;3.17;69.24609;949.7139;;;;
2022/03/21 02:01:42;;;;;;;13.7;9.9;;;;;;;2.96;70.04395;949.7857;;;;
2022/03/21 02:04:07;;;;;;;10.8;9;;;;;;;2.99;70.11523;949.7274;;;;
2022/03/21 02:06:32;;;;;;;13.3;9.4;;;;;;;3.02;70.1875;949.7673;;;;
2022/03/21 02:08:57;;;;;;;11.8;8.9;;;;;;;3.08;69.80371;949.7294;;;;
2022/03/21 02:11:23;;;;;;;13.9;9.8;;;;;;;3.14;69.5127;949.8007;;;;
2022/03/21 02:13:48;;;;;;;12.6;9.7;;;;;;;3.17;70.24609;949.7762;;;;
2022/03/21 02:16:15;;;;;;;14.2;9.8;;;;;;;3.3;69.52637;949.8491;;;;
2022/03/21 02:18:40;;;;;;;14.4;9.9;;;;;;;3.36;69.01855;949.8351;;;;
2022/03/21 02:23:41;;;;;;;12.5;9.3;;;;;;;3.24;68.56348;949.9269;;;;
2022/03/21 02:26:06;;;;;;;13.4;9.6;;;;;;;3.14;68.77148;949.9155;;;;
2022/03/21 02:28:31;;;;;;;12.3;9.5;;;;;;;2.85;69.94629;949.8722;;;;
2022/03/21 02:30:56;;;;;;;11.9;9.1;;;;;;;2.78;70.15918;949.8169;;;;
2022/03/21 02:33:25;;;;;;;12.1;9.1;;;;;;;2.83;70.04395;949.8632;;;;
2022/03/21 02:35:50;;;;;;;12.7;9.3;;;;;;;2.84;69.86621;949.8937;;;;
2022/03/21 02:38:15;;;;;;;13.9;9.4;;;;;;;2.7;70.21191;949.9142;;;;
2022/03/21 02:40:40;;;;;;;13.1;9.4;;;;;;;2.8;69.80371;949.8864;;;;
2022/03/21 02:43:06;;;;;;;11.9;9.5;;;;;;;2.71;69.95703;949.9364;;;;
2022/03/21 02:45:31;;;;;;;11.1;8.5;;;;;;;2.58;70.46289;949.861;;;;
2022/03/21 02:47:56;;;;;;;12.1;9.3;;;;;;;2.51;70.9541;949.9087;;;;
2022/03/21 02:50:21;;;;;;;13.7;9.1;;;;;;;2.46;71.32715;949.9331;;;;
2022/03/21 02:52:46;;;;;;;13.5;9;;;;;;;2.42;71.68945;949.9411;;;;
2022/03/21 02:55:11;;;;;;;14;9.9;;;;;;;2.47;71.66504;949.8984;;;;
2022/03/21 02:57:37;;;;;;;13.8;10;;;;;;;2.6;71.12598;949.9601;;;;
2022/03/21 03:03:34;;;;;;;14.4;10.2;;;;;;;2.77;71.08691;949.9537;;;;
2022/03/21 03:05:59;;;;;;;14.4;10.6;;;;;;;2.73;70.21973;950.0352;;;;
2022/03/21 03:08:24;;;;;;;13.1;9.6;;;;;;;2.68;70.18652;950.0357;;;;
2022/03/21 03:10:50;;;;;;;13.1;9.7;;;;;;;2.66;70.04883;950.0197;;;;
2022/03/21 03:13:15;;;;;;;15.7;10.3;;;;;;;2.67;70.00586;950.088;;;;
2022/03/21 03:15:42;;;;;;;13.5;10.6;;;;;;;2.57;70.08984;950.06;;;;
2022/03/21 03:18:07;;;;;;;13.3;10;;;;;;;2.49;70.53613;950.1119;;;;
2022/03/21 03:20:32;;;;;;;13.7;9.8;;;;;;;2.59;70.0166;950.1345;;;;
2022/03/21 03:22:57;;;;;;;14.6;9.8;;;;;;;2.62;69.91797;950.1763;;;;
2022/03/21 03:25:23;;;;;;;12.1;9.1;;;;;;;2.49;70.53613;950.2028;;;;
2022/03/21 03:27:47;;;;;;;13.4;10.2;;;;;;;2.47;70.69043;950.2255;;;;
2022/03/21 03:30:13;;;;;;;11.7;9.6;;;;;;;2.47;70.83594;950.2544;;;;
2022/03/21 03:32:39;;;;;;;13.7;9.7;;;;;;;2.34;71.34082;950.1941;;;;
2022/03/21 03:35:05;;;;;;;13.1;9.5;;;;;;;2.37;71.30078;950.1305;;;;
2022/03/21 03:37:30;;;;;;;20.2;10.5;;;;;;;2.34;71.44043;950.1717;;;;
2022/03/21 03:39:55;;;;;;;13.6;10;;;;;;;2.28;71.4873;950.254;;;;
2022/03/21 03:42:21;;;;;;;14;9.5;;;;;;;2.25;71.59473;950.1909;;;;
2022/03/21 03:44:47;;;;;;;12.3;9.2;;;;;;;2.33;71.25;950.2434;;;;
2022/03/21 03:47:12;;;;;;;14.2;10.5;;;;;;;2.35;71.74609;950.2242;;;;
2022/03/21 03:49:37;;;;;;;13.9;10.3;;;;;;;2.35;71.33105;950.2025;;;;
2022/03/21 03:52:02;;;;;;;14.4;9.8;;;;;;;2.37;71.16602;950.2249;;;;
2022/03/21 03:54:27;;;;;;;14.5;10;;;;;;;2.37;70.50586;950.1909;;;;
2022/03/21 03:56:53;;;;;;;13.1;10.2;;;;;;;2.37;70.38184;950.2176;;;;
2022/03/21 03:59:18;;;;;;;15;10.1;;;;;;;2.33;71.19434;950.176;;;;
2022/03/21 04:03:44;;;;;;;15.5;10.5;;;;;;;2.38;70.71973;950.2458;;;;
2022/03/21 04:04:58;;;;;;;15.6;10;;;;;;;2.38;70.6416;950.2292;;;;
2022/03/21 04:07:24;;;;;;;13.2;9.8;;;;;;;2.12;71.97656;950.2813;;;;
2022/03/21 04:09:49;;;;;;;13.8;10.1;;;;;;;2.12;72.29004;950.2059;;;;
2022/03/21 04:12:14;;;;;;;15.3;10.6;;;;;;;2.08;72.42578;950.2408;;;;
2022/03/21 04:14:39;;;;;;;14;10;;;;;;;2.06;72.38965;950.2413;;;;
2022/03/21 04:17:06;;;;;;;15.7;10.2;;;;;;;2.09;72.2168;950.2157;;;;
2022/03/21 04:19:31;;;;;;;18.3;11.4;;;;;;;2.11;71.74902;950.2159;;;;
2022/03/21 04:21:56;;;;;;;18.5;12.2;;;;;;;2.09;71.67969;950.298;;;;
2022/03/21 04:24:21;;;;;;;25.2;13.3;;;;;;;2.07;71.50781;950.2999;;;;
2022/03/21 04:26:49;;;;;;;26.7;14.8;;;;;;;2.1;71.24414;950.3018;;;;
2022/03/21 04:29:14;;;;;;;33.4;19.6;;;;;;;2.09;71.19922;950.3345;;;;
2022/03/21 04:31:39;;;;;;;27.9;17.2;;;;;;;2.01;71.54199;950.2729;;;;
2022/03/21 04:34:04;;;;;;;20.4;13.6;;;;;;;2.02;71.64648;950.356;;;;
2022/03/21 04:36:31;;;;;;;21.8;14.4;;;;;;;2.02;71.57715;950.4319;;;;
2022/03/21 04:38:56;;;;;;;18.2;12.9;;;;;;;2.09;71.39941;950.3923;;;;
2022/03/21 04:41:21;;;;;;;20.6;13.5;;;;;;;2.06;71.59473;950.4021;;;;
2022/03/21 04:43:47;;;;;;;21.2;13;;;;;;;2.13;71.14746;950.4277;;;;
2022/03/21 04:46:13;;;;;;;17.3;12.6;;;;;;;2.12;71.11328;950.5472;;;;
2022/03/21 04:48:37;;;;;;;19.9;13.8;;;;;;;2.18;70.84375;950.5125;;;;
2022/03/21 04:51:04;;;;;;;20.1;13.2;;;;;;;2.23;70.79492;950.5081;;;;
2022/03/21 04:53:29;;;;;;;20.3;13.9;;;;;;;2.26;70.7207;950.5545;;;;
2022/03/21 04:55:55;;;;;;;23.1;14.1;;;;;;;2.21;70.64844;950.5408;;;;
2022/03/21 04:58:20;;;;;;;21.8;13.7;;;;;;;2.27;70.45508;950.5451;;;;
2022/03/21 05:00:46;;;;;;;22;13.3;;;;;;;2.17;70.7959;950.5634;;;;
2022/03/21 05:03:11;;;;;;;20.1;12.6;;;;;;;2.26;71.60547;950.6415;;;;
2022/03/21 05:05:37;;;;;;;16.4;11.4;;;;;;;2.2;71.70996;950.6788;;;;
2022/03/21 05:08:02;;;;;;;16.6;11.9;;;;;;;2.13;71.50586;950.7021;;;;
2022/03/21 05:10:29;;;;;;;23.8;13.3;;;;;;;2.18;71.10059;950.6961;;;;
2022/03/21 05:12:54;;;;;;;19.8;12.2;;;;;;;2.17;70.85352;950.6848;;;;
2022/03/21 05:15:19;;;;;;;20.8;12.1;;;;;;;2.09;70.93066;950.7178;;;;
2022/03/21 05:17:45;;;;;;;17.1;11.7;;;;;;;2.04;71.1123;950.7688;;;;
2022/03/21 05:20:22;;;;;;;16.6;12.1;;;;;;;1.98;71.13477;950.7494;;;;
2022/03/21 05:22:39;;;;;;;17.4;11.9;;;;;;;1.93;71.22461;950.7497;;;;
2022/03/21 05:32:19;;;;;;;17.3;11.2;;;;;;;1.89;71.82617;950.7609;;;;
2022/03/21 05:37:10;;;;;;;19.3;11.5;;;;;;;2.02;71.99121;950.9127;;;;
2022/03/21 05:40:31;;;;;;;18.5;12.4;;;;;;;2;71.76465;950.8364;;;;
2022/03/21 05:42:00;;;;;;;17.5;12.3;;;;;;;1.96;71.83691;950.8839;;;;
2022/03/21 05:44:25;;;;;;;24.2;13.7;;;;;;;2.13;71.28223;950.8918;;;;
2022/03/21 05:46:50;;;;;;;27;15;;;;;;;2.22;70.92969;950.9333;;;;
2022/03/21 05:49:17;;;;;;;36.4;20.3;;;;;;;2.24;71;950.8758;;;;
2022/03/21 05:51:42;;;;;;;33.8;20;;;;;;;2.35;70.82715;950.9813;;;;
2022/03/21 05:54:08;;;;;;;27.8;18.8;;;;;;;2.5;70.38281;950.9483;;;;
2022/03/21 05:56:34;;;;;;;26;18.4;;;;;;;2.55;70.4668;950.9469;;;;
2022/03/21 06:00:20;;;;;;;26;17.3;;;;;;;2.68;70.1416;950.929;;;;
2022/03/21 06:01:26;;;;;;;22.8;15.1;;;;;;;2.92;68.99316;950.8769;;;;
2022/03/21 06:03:52;;;;;;;21.8;12.4;;;;;;;3.11;67.99121;950.9573;;;;
2022/03/21 06:06:17;;;;;;;20;13.2;;;;;;;3.27;68.04004;950.9581;;;;
2022/03/21 06:08:42;;;;;;;24.3;12.8;;;;;;;3.53;66.83398;950.9791;;;;
2022/03/21 06:11:08;;;;;;;23.4;12.6;;;;;;;3.67;66.1709;951.0126;;;;
2022/03/21 06:13:34;;;;;;;25.8;13.7;;;;;;;3.86;65.3125;951.0481;;;;
2022/03/21 06:16:01;;;;;;;17.4;11.7;;;;;;;3.98;64.19629;951.009;;;;
2022/03/21 06:18:26;;;;;;;28.3;12.9;;;;;;;4.01;64.2334;951.0605;;;;
2022/03/21 06:20:51;;;;;;;25.3;13.8;;;;;;;4.5;63.22656;951.0172;;;;
2022/03/21 06:23:17;;;;;;;23.6;12.5;;;;;;;4.57;62.04395;951.0209;;;;
2022/03/21 06:25:42;;;;;;;23.3;12.7;;;;;;;4.4;62.89551;951.0595;;;;
2022/03/21 06:28:08;;;;;;;23.8;12.5;;;;;;;4.75;62.63281;951.0706;;;;
2022/03/21 06:31:05;;;;;;;27.2;13.4;;;;;;;5.1;60.85742;951.0708;;;;
2022/03/21 06:33:31;;;;;;;23.9;11.6;;;;;;;5.45;60.34473;951.1255;;;;
2022/03/21 06:35:55;;;;;;;23.8;11.7;;;;;;;5.93;59.02148;951.097;;;;
2022/03/21 06:38:20;;;;;;;22.6;12.2;;;;;;;5.83;58.72559;951.1111;;;;
2022/03/21 06:40:46;;;;;;;24;11.9;;;;;;;6.28;58.4707;951.0982;;;;
2022/03/21 06:45:36;;;;;;;22.8;14.2;;;;;;;6.82;56.07617;951.1139;;;;
2022/03/21 06:48:01;;;;;;;18.7;11.1;;;;;;;7.6;53.30957;951.1117;;;;
2022/03/21 06:50:26;;;;;;;16;10.5;;;;;;;8.55;50.14258;951.05;;;;
2022/03/21 06:52:52;;;;;;;26.9;11.7;;;;;;;8.21;51.7168;951.1144;;;;
2022/03/21 06:55:16;;;;;;;23.9;12.7;;;;;;;8.85;50.37207;951.1181;;;;
2022/03/21 06:57:42;;;;;;;25.2;11;;;;;;;8.6;50.22852;951.0986;;;;
2022/03/21 07:00:07;;;;;;;18.7;11.1;;;;;;;8.28;50.88477;951.0876;;;;
2022/03/21 07:02:34;;;;;;;18.2;10.9;;;;;;;7.92;49.54785;951.1572;;;;
2022/03/21 07:04:59;;;;;;;19.6;11.9;;;;;;;8.4;49.65918;951.1242;;;;
2022/03/21 07:07:26;;;;;;;21.7;11.2;;;;;;;8.44;48.65332;951.122;;;;
2022/03/21 07:09:51;;;;;;;21.2;11.4;;;;;;;8.38;48.69238;951.095;;;;
2022/03/21 07:12:18;;;;;;;18.6;12;;;;;;;9.27;46.34473;951.1211;;;;
2022/03/21 07:14:43;;;;;;;20;11.6;;;;;;;9.84;45.82422;951.1347;;;;
2022/03/21 07:17:08;;;;;;;22.6;13.8;;;;;;;10.72;44.19336;951.0419;;;;
2022/03/21 07:19:34;;;;;;;23.6;15.4;;;;;;;11.07;42.57227;951.0669;;;;
2022/03/21 07:22:01;;;;;;;21.8;14.4;;;;;;;11.31;42.06934;951.0418;;;;
2022/03/21 07:24:26;;;;;;;28.9;17.8;;;;;;;10.75;42.79102;951.0394;;;;
2022/03/21 07:26:51;;;;;;;26;15.2;;;;;;;10.83;42.62793;951.0413;;;;
2022/03/21 07:29:16;;;;;;;30;15.9;;;;;;;11.1;42.27734;951.0214;;;;
2022/03/21 07:31:41;;;;;;;25.7;16.5;;;;;;;10.47;43.17383;951.0602;;;;
2022/03/21 07:34:07;;;;;;;25.9;14.9;;;;;;;11.41;41.9873;951.0698;;;;
2022/03/21 07:36:32;;;;;;;19.5;12.3;;;;;;;10.97;42.19531;951.1106;;;;
2022/03/21 07:38:58;;;;;;;18.7;12.1;;;;;;;11.38;42.04199;951.0995;;;;
2022/03/21 07:41:26;;;;;;;20.1;11.7;;;;;;;11.27;42.41992;951.1205;;;;
2022/03/21 07:43:49;;;;;;;24.5;10.4;;;;;;;11.45;40.96094;951.1128;;;;
2022/03/21 07:48:39;;;;;;;11.9;7.8;;;;;;;12.48;37.8584;951.1121;;;;
2022/03/21 07:51:07;;;;;;;14.3;8.2;;;;;;;12.26;37.97754;951.1562;;;;
2022/03/21 07:53:30;;;;;;;12.6;8.5;;;;;;;13.41;36.19336;951.1537;;;;
2022/03/21 07:56:00;;;;;;;14.4;8.4;;;;;;;13.02;36.73535;951.1653;;;;
2022/03/21 07:58:22;;;;;;;14;8.5;;;;;;;12.45;36.8125;951.1169;;;;
2022/03/21 08:00:47;;;;;;;11.2;8.2;;;;;;;11.8;37.47949;951.0985;;;;
2022/03/21 08:03:14;;;;;;;12.6;8.3;;;;;;;12.49;39.20215;951.1266;;;;
2022/03/21 08:05:38;;;;;;;12.1;8.3;;;;;;;12.07;36.64258;951.1194;;;;
2022/03/21 08:08:03;;;;;;;12.1;8.3;;;;;;;13.44;36.17285;951.117;;;;
2022/03/21 08:10:29;;;;;;;15;8.6;;;;;;;14.28;33.96191;951.1097;;;;
2022/03/21 08:12:55;;;;;;;11.4;8.1;;;;;;;13.43;34.5625;951.1153;;;;
2022/03/21 08:15:19;;;;;;;11.7;8.3;;;;;;;13.86;33.14746;951.1037;;;;
2022/03/21 08:17:47;;;;;;;12.4;8;;;;;;;13.64;33.92383;951.0858;;;;
2022/03/21 08:20:13;;;;;;;12.7;8.9;;;;;;;13.4;33.74414;951.1111;;;;
2022/03/21 08:22:37;;;;;;;13.3;9;;;;;;;13;33.64355;951.095;;;;
2022/03/21 08:25:03;;;;;;;10.7;7.6;;;;;;;14.37;33.57715;951.1262;;;;
2022/03/21 08:27:29;;;;;;;11.8;8.3;;;;;;;15;30.32715;951.0514;;;;
2022/03/21 08:29:54;;;;;;;11.1;8.6;;;;;;;14.93;30.39063;951.0505;;;;
2022/03/21 08:32:20;;;;;;;10.2;8.5;;;;;;;14.6;31.03613;951.0493;;;;
2022/03/21 08:34:45;;;;;;;12.8;8.6;;;;;;;15.92;29.58105;950.9815;;;;
2022/03/21 08:37:12;;;;;;;14;9.2;;;;;;;15.82;28.44238;950.9871;;;;
2022/03/21 08:39:37;;;;;;;11.9;8.9;;;;;;;16.5;28.9375;950.9824;;;;
2022/03/21 08:42:04;;;;;;;11.7;8.7;;;;;;;17.39;27.91699;950.9192;;;;
2022/03/21 08:44:29;;;;;;;11;8.3;;;;;;;15.92;28.63379;950.8562;;;;
2022/03/21 08:46:59;;;;;;;11.6;8.5;;;;;;;16.93;27.76074;950.8692;;;;
2022/03/21 08:49:26;;;;;;;12.3;8;;;;;;;17.96;26.35059;950.8847;;;;
2022/03/21 08:51:47;;;;;;;15;9.9;;;;;;;18.4;26.4707;950.8315;;;;
2022/03/21 08:54:12;;;;;;;10.6;7.8;;;;;;;18.62;26.30859;950.8081;;;;
2022/03/21 08:56:37;;;;;;;14.4;8.3;;;;;;;18.82;25.75098;950.7715;;;;
2022/03/21 08:59:03;;;;;;;11.3;8.3;;;;;;;16.36;27.85156;950.7952;;;;
2022/03/21 09:01:28;;;;;;;10.6;8.2;;;;;;;15.6;28.98145;950.8058;;;;
2022/03/21 09:03:54;;;;;;;11.4;8.2;;;;;;;15.58;29.01465;950.7724;;;;
2022/03/21 09:06:20;;;;;;;10.9;8;;;;;;;16.9;27.43457;950.6896;;;;
2022/03/21 09:08:45;;;;;;;11.4;7.9;;;;;;;17.83;26.99316;950.7339;;;;
2022/03/21 09:11:10;;;;;;;11.6;7.7;;;;;;;18.92;24.97656;950.6873;;;;
2022/03/21 09:13:36;;;;;;;10.5;7.5;;;;;;;18.53;24.83887;950.7065;;;;
2022/03/21 09:16:01;;;;;;;13.3;8.3;;;;;;;19.92;23.90137;950.6423;;;;
2022/03/21 09:18:28;;;;;;;9.8;7.3;;;;;;;20.13;22.54785;950.5999;;;;
2022/03/21 09:20:54;;;;;;;10.1;7.5;;;;;;;19.6;23.30176;950.6163;;;;
2022/03/21 09:23:19;;;;;;;10.4;7.2;;;;;;;19.98;23.48535;950.5255;;;;
2022/03/21 09:25:44;;;;;;;10.3;7.2;;;;;;;18.7;23.52148;950.5173;;;;
2022/03/21 09:28:09;;;;;;;10;7.5;;;;;;;19.96;22.90137;950.4553;;;;
2022/03/21 09:30:36;;;;;;;10.4;7.4;;;;;;;21.2;22.19336;950.4947;;;;
2022/03/21 09:32:59;;;;;;;9.3;7;;;;;;;22.04;21.77734;950.4486;;;;
2022/03/21 09:35:24;;;;;;;11.2;7;;;;;;;20.56;22.41797;950.4238;;;;
2022/03/21 09:37:49;;;;;;;9.1;6.8;;;;;;;21.26;22.25488;950.4225;;;;
2022/03/21 09:40:18;;;;;;;9.4;6.8;;;;;;;22.32;21.68652;950.3116;;;;
2022/03/21 09:42:40;;;;;;;10.5;6.8;;;;;;;21.48;22.47656;950.3382;;;;
2022/03/21 09:45:05;;;;;;;11.9;7.1;;;;;;;21.85;21.66309;950.3181;;;;
2022/03/21 09:49:55;;;;;;;18.1;7.4;;;;;;;22.57;21.27539;950.2898;;;;
2022/03/21 09:52:21;;;;;;;13.4;7.8;;;;;;;22.71;20.91797;950.2704;;;;
2022/03/21 09:54:47;;;;;;;11.2;7.2;;;;;;;23.51;20.15625;950.2747;;;;
2022/03/21 09:57:13;;;;;;;13.7;7.4;;;;;;;23.89;19.76172;950.2078;;;;
2022/03/21 09:59:38;;;;;;;9.4;6.4;;;;;;;23.84;20.25391;950.2439;;;;
2022/03/21 10:02:04;;;;;;;8;6.3;;;;;;;24.71;18.5127;950.2606;;;;
2022/03/21 10:04:30;;;;;;;9;7;;;;;;;24.99;18.05273;950.2708;;;;
2022/03/21 10:06:55;;;;;;;10.4;7.1;;;;;;;25.07;18.97559;950.2813;;;;
2022/03/21 10:09:20;;;;;;;10.1;7.2;;;;;;;24.64;20.10156;950.2732;;;;
2022/03/21 10:11:45;;;;;;;13.1;7.3;;;;;;;25.68;17.93848;950.2134;;;;
2022/03/21 10:14:11;;;;;;;10.8;7.3;;;;;;;25.97;17.93848;950.1998;;;;
2022/03/21 10:16:37;;;;;;;11.2;6.9;;;;;;;25.43;18.70801;950.1702;;;;
2022/03/21 10:19:02;;;;;;;11.4;6.7;;;;;;;25.64;18.20898;950.2119;;;;
2022/03/21 10:21:27;;;;;;;8.5;6.4;;;;;;;25.82;18.44043;950.147;;;;
2022/03/21 10:23:52;;;;;;;9.6;6.7;;;;;;;26.05;18.52051;950.1749;;;;
2022/03/21 10:26:17;;;;;;;9.1;6.6;;;;;;;25.04;18.78613;950.1051;;;;
2022/03/21 10:28:42;;;;;;;8.7;6.2;;;;;;;24.13;19.27832;950.1007;;;;
2022/03/21 10:31:07;;;;;;;10.1;6.6;;;;;;;23.6;19.7959;950.1005;;;;
2022/03/21 10:33:33;;;;;;;9.9;6.7;;;;;;;22.6;20.65527;950.1015;;;;
2022/03/21 10:35:58;;;;;;;9.8;6.2;;;;;;;22.86;20.30371;950.0481;;;;
2022/03/21 10:38:23;;;;;;;9.3;6.9;;;;;;;23.16;20.61133;950.0505;;;;
2022/03/21 10:40:48;;;;;;;9.3;6.4;;;;;;;23.5;21.49707;950.0455;;;;
2022/03/21 10:43:13;;;;;;;10.5;6.7;;;;;;;23;21.64844;950.0438;;;;
2022/03/21 10:45:39;;;;;;;9.5;6.6;;;;;;;23.41;21.2334;950.0945;;;;
2022/03/21 10:48:04;;;;;;;10.6;7;;;;;;;22.87;22.27637;949.9984;;;;
2022/03/21 10:50:29;;;;;;;12.1;7.1;;;;;;;22.96;22.36328;949.9576;;;;
2022/03/21 10:52:55;;;;;;;8.6;6.4;;;;;;;23.65;21.91602;949.9494;;;;
2022/03/21 10:55:20;;;;;;;8.2;6.6;;;;;;;24.76;20.59082;949.9791;;;;
2022/03/21 10:57:46;;;;;;;10.2;6.7;;;;;;;24.16;21.23438;949.8574;;;;
2022/03/21 11:00:11;;;;;;;11;6.8;;;;;;;23.95;21.24805;949.9005;;;;
2022/03/21 11:02:39;;;;;;;9.2;6.7;;;;;;;24.49;20.91992;949.7896;;;;
2022/03/21 11:05:04;;;;;;;10.1;6.7;;;;;;;23.41;21.375;949.8082;;;;
2022/03/21 11:07:31;;;;;;;10.3;6.4;;;;;;;23.82;21.06543;949.7892;;;;
2022/03/21 11:09:57;;;;;;;9.1;6.7;;;;;;;23.61;21.19531;949.7288;;;;
2022/03/21 11:12:22;;;;;;;8.8;6.6;;;;;;;23.09;22.52246;949.822;;;;
2022/03/21 11:14:47;;;;;;;10.7;7.2;;;;;;;22.85;23.27344;949.7868;;;;
2022/03/21 11:17:13;;;;;;;9.6;7;;;;;;;23.08;22.85156;949.7051;;;;
2022/03/21 11:19:38;;;;;;;9.9;6.8;;;;;;;22.91;22.53711;949.7798;;;;
2022/03/21 11:22:04;;;;;;;10.3;6.5;;;;;;;23.85;21.83105;949.7173;;;;
2022/03/21 11:24:29;;;;;;;11.2;7.8;;;;;;;23.8;22.45313;949.609;;;;
2022/03/21 11:26:54;;;;;;;11.7;8;;;;;;;23.7;21.84766;949.7335;;;;
2022/03/21 11:29:19;;;;;;;11.4;6.8;;;;;;;24.36;21.45605;949.637;;;;
2022/03/21 11:31:45;;;;;;;12.1;7.4;;;;;;;23.48;22.03613;949.6443;;;;
2022/03/21 11:34:09;;;;;;;12.3;7.8;;;;;;;23.28;22.80273;949.6916;;;;
2022/03/21 11:36:34;;;;;;;10.2;8.1;;;;;;;22.66;23.20508;949.6241;;;;
2022/03/21 11:39:00;;;;;;;13.2;7.4;;;;;;;23.45;22.22363;949.5198;;;;
2022/03/21 11:41:26;;;;;;;12.1;7.8;;;;;;;24.31;21.72461;949.5432;;;;
2022/03/21 11:43:50;;;;;;;12.9;7.2;;;;;;;23.88;22.0332;949.5302;;;;
2022/03/21 11:46:16;;;;;;;14;8.3;;;;;;;24.43;21.4707;949.5746;;;;
2022/03/21 11:48:41;;;;;;;12;8.1;;;;;;;24.14;21.62207;949.5119;;;;
2022/03/21 11:51:06;;;;;;;13.1;7.8;;;;;;;24.89;20.45508;949.5358;;;;
2022/03/21 11:53:32;;;;;;;13;7.9;;;;;;;24.92;20.5625;949.4836;;;;
2022/03/21 11:55:57;;;;;;;11.1;7.6;;;;;;;24.67;20.31543;949.5186;;;;
2022/03/21 11:58:22;;;;;;;14.4;7.6;;;;;;;24.2;20.69434;949.4729;;;;
2022/03/21 12:00:48;;;;;;;13.1;7.1;;;;;;;24.55;20.33301;949.3278;;;;
2022/03/21 12:03:13;;;;;;;11.9;7.2;;;;;;;24.94;20.77637;949.4805;;;;
2022/03/21 12:05:39;;;;;;;11;7.1;;;;;;;24.94;20.19824;949.4113;;;;
2022/03/21 12:08:04;;;;;;;13.3;8.1;;;;;;;25.45;19.84277;949.4128;;;;
2022/03/21 12:10:29;;;;;;;10.4;7;;;;;;;25.42;19.4043;949.3653;;;;
2022/03/21 12:12:54;;;;;;;13.3;7.6;;;;;;;25.49;19.58496;949.3727;;;;
2022/03/21 12:15:22;;;;;;;11.8;7.1;;;;;;;26.66;18.57031;949.3035;;;;
2022/03/21 12:17:47;;;;;;;19.3;7.6;;;;;;;26.18;19.16504;949.2894;;;;
2022/03/21 12:20:13;;;;;;;12.5;6.9;;;;;;;26.51;18.39746;949.2292;;;;
2022/03/21 12:22:39;;;;;;;12.7;7;;;;;;;25.55;19.59863;949.1987;;;;
2022/03/21 12:25:04;;;;;;;11.1;7;;;;;;;26.07;18.81738;949.1577;;;;
2022/03/21 12:27:30;;;;;;;11.8;6.7;;;;;;;25.49;19.12402;949.0806;;;;
2022/03/21 12:29:55;;;;;;;11.7;6.4;;;;;;;24.76;19.37598;949.0851;;;;
2022/03/21 12:32:21;;;;;;;12.4;7;;;;;;;25.7;19.4873;949.1398;;;;
2022/03/21 12:34:46;;;;;;;11.9;6.8;;;;;;;25.66;19.10742;949.0739;;;;
2022/03/21 12:37:12;;;;;;;11.8;6.4;;;;;;;25.95;18.12695;949.0439;;;;
2022/03/21 12:39:37;;;;;;;10.3;6.5;;;;;;;25.35;18.89355;948.9818;;;;
2022/03/21 12:42:02;;;;;;;11.1;6.4;;;;;;;25.57;19.06836;948.9867;;;;
2022/03/21 12:44:27;;;;;;;14.3;6.8;;;;;;;26.01;18.70898;948.884;;;;
2022/03/21 12:46:52;;;;;;;12.8;6.9;;;;;;;24.78;20.00195;948.9357;;;;
2022/03/21 12:49:17;;;;;;;12.2;7.1;;;;;;;24.2;19.89355;948.8403;;;;
2022/03/21 12:51:44;;;;;;;9.6;6.4;;;;;;;23.91;20.19824;948.8014;;;;
2022/03/21 12:54:08;;;;;;;8.7;6.6;;;;;;;23.61;22.14941;948.8422;;;;
2022/03/21 12:56:33;;;;;;;10.3;6.7;;;;;;;24.39;19.83105;948.8473;;;;
2022/03/21 12:58:58;;;;;;;19.1;7.7;;;;;;;24.97;19.96289;948.8303;;;;
2022/03/21 13:01:24;;;;;;;12.9;6.9;;;;;;;24.83;19.55566;948.799;;;;
2022/03/21 13:03:49;;;;;;;13.5;7.1;;;;;;;24.13;21.00879;948.8072;;;;
2022/03/21 13:11:05;;;;;;;11;6.4;;;;;;;24.19;20.3877;948.7689;;;;
2022/03/21 13:13:30;;;;;;;11.7;6.7;;;;;;;24.84;20.02832;948.7539;;;;
2022/03/21 13:15:56;;;;;;;15.9;7.2;;;;;;;23.97;20.96582;948.7118;;;;
2022/03/21 13:18:22;;;;;;;15.7;6.7;;;;;;;23.25;21.57813;948.712;;;;
2022/03/21 13:20:47;;;;;;;13.7;7.3;;;;;;;22.36;21.88672;948.7972;;;;
2022/03/21 13:23:18;;;;;;;13.6;6.7;;;;;;;22.72;21.77637;948.7653;;;;
2022/03/21 13:25:39;;;;;;;9.6;6;;;;;;;22.84;21.92285;948.6465;;;;
2022/03/21 13:28:04;;;;;;;12.7;6.9;;;;;;;23.16;21.61035;948.6957;;;;
2022/03/21 13:30:29;;;;;;;12.8;6.9;;;;;;;23.44;21.30566;948.6306;;;;
2022/03/21 13:32:57;;;;;;;15.7;7.5;;;;;;;23.21;21.50586;948.6418;;;;
2022/03/21 13:35:22;;;;;;;12.1;7.2;;;;;;;22.71;21.95215;948.6193;;;;
2022/03/21 13:37:48;;;;;;;12.1;6.2;;;;;;;23.76;21.00293;948.5681;;;;
2022/03/21 13:40:13;;;;;;;12.3;6.5;;;;;;;23.4;20.87988;948.5142;;;;
2022/03/21 13:42:38;;;;;;;14.1;6.5;;;;;;;23.01;21.14453;948.5664;;;;
2022/03/21 13:45:05;;;;;;;14.4;6.7;;;;;;;22.53;22.04785;948.5158;;;;
2022/03/21 13:47:28;;;;;;;13;6.7;;;;;;;22.53;22.58887;948.5781;;;;
2022/03/21 13:49:54;;;;;;;12.2;6.8;;;;;;;21.61;23.13867;948.57;;;;
2022/03/21 13:52:18;;;;;;;11.6;6.7;;;;;;;21.88;22.15625;948.5108;;;;
2022/03/21 13:54:43;;;;;;;11.4;6.7;;;;;;;21.23;23.35254;948.517;;;;
2022/03/21 13:57:08;;;;;;;15.9;6.5;;;;;;;21.13;23.75684;948.4778;;;;
2022/03/21 13:59:33;;;;;;;10.2;6.2;;;;;;;21.99;22.29102;948.4867;;;;
2022/03/21 14:01:58;;;;;;;11.2;6.4;;;;;;;21.62;23.18652;948.4213;;;;
2022/03/21 14:04:24;;;;;;;10.8;6.4;;;;;;;21.99;21.76367;948.4235;;;;
2022/03/21 14:06:49;;;;;;;17.6;6.4;;;;;;;21.33;23.21777;948.3285;;;;
2022/03/21 14:09:14;;;;;;;15.3;6.5;;;;;;;21.54;23.31055;948.4008;;;;
2022/03/21 14:11:39;;;;;;;13.5;6.7;;;;;;;21.44;23.14063;948.4536;;;;
2022/03/21 14:14:11;;;;;;;12;6.7;;;;;;;21.81;22.50488;948.3575;;;;
2022/03/21 14:16:32;;;;;;;11.2;6.2;;;;;;;21.19;23.67871;948.4217;;;;
2022/03/21 14:18:57;;;;;;;15.9;7.2;;;;;;;21.33;23.86133;948.3958;;;;
2022/03/21 14:21:22;;;;;;;13.3;7.2;;;;;;;20.54;25.25586;948.4008;;;;
2022/03/21 14:23:49;;;;;;;13.1;7;;;;;;;20.29;24.59961;948.4033;;;;
2022/03/21 14:26:34;;;;;;;14.5;7.1;;;;;;;19.77;25.21094;948.3596;;;;
2022/03/21 14:28:39;;;;;;;15.7;7.4;;;;;;;20.72;24.82129;948.3801;;;;
2022/03/21 14:31:04;;;;;;;14.8;7.2;;;;;;;20.13;25.88574;948.3942;;;;
2022/03/21 14:33:30;;;;;;;13;7.1;;;;;;;19.25;26.49805;948.36;;;;
2022/03/21 14:35:55;;;;;;;15;7.6;;;;;;;19.28;26.08105;948.2903;;;;
2022/03/21 14:38:21;;;;;;;15.8;7.2;;;;;;;18.75;26.44434;948.3617;;;;
2022/03/21 14:40:46;;;;;;;12.4;7;;;;;;;17.58;28.16211;948.2653;;;;
2022/03/21 14:43:11;;;;;;;18.1;7.7;;;;;;;17.67;29.54785;948.2566;;;;
2022/03/21 14:45:36;;;;;;;13.4;7.4;;;;;;;17.23;29.3457;948.3409;;;;
2022/03/21 14:48:03;;;;;;;12;7.6;;;;;;;17.24;29.14844;948.2942;;;;